Time;durP1;ratioP1;P1;durP2;ratioP2;P2;SDS_P1;SDS_P2;PMS_P1;PMS_P2;Temp;Humidity;BMP_temperature;BMP_pressure;BME280_temperature;BME280_humidity;BME280_pressure;Samples;Min_cycle;Max_cycle;Signal;HPM_P1;HPM_P2
2023/09/29 00:04:04;;;;;;;29.08;13.82;;;;;;;11.87;100.00;101484.06;10551980;28;20036;-87
2023/09/29 00:09:06;;;;;;;29.02;16.40;;;;;;;11.83;100.00;101477.44;10540610;28;20044;-86
2023/09/29 00:14:10;;;;;;;30.67;15.48;;;;;;;11.82;100.00;101473.88;10528209;28;20036;-86
2023/09/29 00:19:13;;;;;;;28.20;15.07;;;;;;;11.90;100.00;101462.34;10582961;28;20044;-86
2023/09/29 00:24:16;;;;;;;35.10;16.95;;;;;;;11.97;100.00;101460.16;10561461;28;20507;-86
2023/09/29 00:29:18;;;;;;;31.50;16.08;;;;;;;12.00;100.00;101453.31;10555003;28;20032;-86
2023/09/29 00:34:20;;;;;;;29.48;14.50;;;;;;;11.93;100.00;101437.03;10554417;28;20510;-87
2023/09/29 00:39:24;;;;;;;32.10;15.60;;;;;;;11.95;100.00;101426.59;10545973;28;20050;-86
2023/09/29 00:44:26;;;;;;;32.63;15.98;;;;;;;11.98;100.00;101422.50;10567300;28;20036;-86
2023/09/29 00:49:29;;;;;;;25.77;13.30;;;;;;;11.98;100.00;101419.75;10528630;28;20039;-86
2023/09/29 00:54:32;;;;;;;32.33;15.55;;;;;;;12.01;100.00;101421.94;10578575;28;20113;-86
2023/09/29 00:59:35;;;;;;;30.40;15.35;;;;;;;12.07;100.00;101421.69;10563071;28;20100;-86
2023/09/29 01:04:38;;;;;;;31.73;15.73;;;;;;;12.17;100.00;101409.88;10557074;28;20044;-86
2023/09/29 01:09:42;;;;;;;27.95;14.68;;;;;;;12.12;100.00;101396.09;10550579;28;20418;-86
2023/09/29 01:14:46;;;;;;;24.77;13.38;;;;;;;12.15;100.00;101397.47;10583647;28;20047;-86
2023/09/29 01:19:49;;;;;;;33.92;14.55;;;;;;;12.25;100.00;101392.00;10580984;28;20036;-86
2023/09/29 01:24:51;;;;;;;27.02;14.45;;;;;;;12.21;100.00;101391.72;10581016;28;20043;-87
2023/09/29 01:29:53;;;;;;;25.98;14.52;;;;;;;12.21;100.00;101379.88;10563458;28;20039;-87
2023/09/29 01:34:55;;;;;;;29.23;14.65;;;;;;;12.23;100.00;101377.69;10577018;28;20039;-86
2023/09/29 01:39:58;;;;;;;29.40;14.35;;;;;;;12.23;100.00;101373.00;10579307;28;20059;-86
2023/09/29 01:45:01;;;;;;;26.70;16.02;;;;;;;12.21;100.00;101369.69;10542579;28;20131;-86
2023/09/29 01:50:05;;;;;;;28.95;13.98;;;;;;;12.22;100.00;101367.78;10579217;28;20427;-86
2023/09/29 01:55:09;;;;;;;29.48;14.48;;;;;;;12.20;100.00;101359.81;10562930;28;20043;-86
2023/09/29 02:00:15;;;;;;;25.77;13.98;;;;;;;12.11;100.00;101368.84;10579213;28;20042;-87
2023/09/29 02:05:17;;;;;;;30.17;14.43;;;;;;;12.01;100.00;101350.44;10549346;28;20036;-86
2023/09/29 02:10:20;;;;;;;25.83;13.85;;;;;;;12.03;100.00;101348.22;10539888;28;20051;-86
2023/09/29 02:15:25;;;;;;;28.85;13.52;;;;;;;12.08;100.00;101348.22;10578136;28;20042;-86
2023/09/29 02:20:30;;;;;;;25.98;12.90;;;;;;;12.13;100.00;101333.63;10514158;28;20040;-86
2023/09/29 02:25:34;;;;;;;26.23;13.97;;;;;;;12.15;100.00;101335.03;10574029;28;20036;-86
2023/09/29 02:30:38;;;;;;;25.90;13.32;;;;;;;12.14;100.00;101336.13;10552271;28;20249;-86
2023/09/29 02:35:43;;;;;;;27.48;12.95;;;;;;;12.29;100.00;101340.81;10569679;28;20032;-86
2023/09/29 02:40:47;;;;;;;24.60;12.65;;;;;;;12.33;100.00;101333.66;10588367;28;20048;-86
2023/09/29 02:45:49;;;;;;;23.80;13.02;;;;;;;12.37;100.00;101334.75;10570886;28;20054;-86
2023/09/29 02:50:52;;;;;;;23.48;12.57;;;;;;;12.41;100.00;101329.53;10563479;28;20032;-87
2023/09/29 02:55:56;;;;;;;25.58;13.43;;;;;;;12.45;100.00;101316.84;10543828;28;20040;-86
2023/09/29 03:01:01;;;;;;;24.48;12.15;;;;;;;12.43;100.00;101303.38;10585879;28;20040;-86
2023/09/29 03:06:07;;;;;;;30.58;13.90;;;;;;;12.41;100.00;101286.31;10576357;28;20039;-86
2023/09/29 03:11:12;;;;;;;23.42;13.25;;;;;;;12.45;100.00;101289.31;10584613;28;20046;-86
2023/09/29 03:16:18;;;;;;;22.25;11.50;;;;;;;12.59;100.00;101276.63;10558365;28;20058;-86
2023/09/29 03:21:21;;;;;;;25.15;12.63;;;;;;;12.69;100.00;101271.13;10550397;28;20059;-85
2023/09/29 03:26:23;;;;;;;23.13;12.93;;;;;;;12.78;100.00;101268.59;10558139;28;20043;-86
2023/09/29 03:31:26;;;;;;;21.02;11.13;;;;;;;12.80;100.00;101277.41;10567905;28;20048;-85
2023/09/29 03:36:30;;;;;;;24.10;11.90;;;;;;;12.95;100.00;101266.31;10537268;28;20040;-85
2023/09/29 03:41:33;;;;;;;26.00;11.85;;;;;;;12.99;100.00;101268.22;10547724;28;20052;-87
2023/09/29 03:46:35;;;;;;;24.23;12.02;;;;;;;12.97;100.00;101262.19;10552156;28;20042;-86
2023/09/29 03:51:38;;;;;;;25.92;10.35;;;;;;;12.95;100.00;101267.16;10567482;28;20044;-87
2023/09/29 03:56:40;;;;;;;23.65;10.80;;;;;;;12.97;100.00;101262.19;10585739;28;20039;-86
2023/09/29 04:01:45;;;;;;;22.48;11.93;;;;;;;13.00;100.00;101263.53;10553749;28;20040;-86
2023/09/29 04:06:52;;;;;;;23.20;12.35;;;;;;;12.96;100.00;101249.50;10583351;28;20047;-87
2023/09/29 04:11:55;;;;;;;23.48;10.73;;;;;;;12.93;100.00;101239.06;10584389;28;20044;-86
2023/09/29 04:16:58;;;;;;;23.42;11.40;;;;;;;12.96;100.00;101227.47;10561709;28;20036;-87
2023/09/29 04:22:00;;;;;;;21.30;10.40;;;;;;;12.87;100.00;101229.19;10559622;28;20042;-86
2023/09/29 04:27:03;;;;;;;20.88;9.65;;;;;;;12.93;100.00;101224.47;10562881;28;20450;-86
2023/09/29 04:32:07;;;;;;;23.55;10.93;;;;;;;12.95;100.00;101223.06;10557059;28;20040;-84
2023/09/29 04:37:10;;;;;;;24.00;10.18;;;;;;;13.01;100.00;101223.88;10575374;28;20050;-86
2023/09/29 04:42:13;;;;;;;17.70;9.57;;;;;;;12.98;100.00;101229.94;10560362;28;20048;-85
2023/09/29 04:47:15;;;;;;;20.45;9.50;;;;;;;13.03;100.00;101223.59;10580333;28;20038;-85
2023/09/29 04:52:18;;;;;;;20.85;9.50;;;;;;;13.05;100.00;101207.63;10559838;28;20036;-85
2023/09/29 04:57:23;;;;;;;18.40;9.60;;;;;;;12.98;100.00;101194.97;10536818;28;20033;-86
2023/09/29 05:02:29;;;;;;;17.60;9.20;;;;;;;13.08;100.00;101201.53;10580711;28;20415;-85
2023/09/29 05:07:31;;;;;;;20.65;10.02;;;;;;;13.23;100.00;101201.47;10563220;28;20047;-86
2023/09/29 05:12:34;;;;;;;19.52;10.15;;;;;;;13.30;100.00;101207.47;10567046;28;20038;-86
2023/09/29 05:17:37;;;;;;;24.23;9.85;;;;;;;13.35;100.00;101209.38;10573158;28;20040;-85
2023/09/29 05:22:40;;;;;;;20.88;9.52;;;;;;;13.40;100.00;101204.69;10562971;28;20050;-85
2023/09/29 05:27:44;;;;;;;19.42;10.55;;;;;;;13.54;100.00;101193.81;10563331;28;20403;-85
2023/09/29 05:32:46;;;;;;;17.33;9.77;;;;;;;13.65;100.00;101192.63;10580371;28;20525;-84
2023/09/29 05:37:49;;;;;;;19.25;10.50;;;;;;;13.86;100.00;101196.84;10579666;28;20048;-84
2023/09/29 05:42:51;;;;;;;19.27;9.88;;;;;;;13.97;100.00;101205.88;10566595;28;20044;-83
2023/09/29 05:47:54;;;;;;;20.67;10.68;;;;;;;14.17;99.52;101213.94;10561320;28;20042;-84
2023/09/29 05:52:57;;;;;;;19.80;11.00;;;;;;;14.31;97.73;101204.97;10580598;28;20040;-85
2023/09/29 05:58:00;;;;;;;19.65;10.88;;;;;;;14.59;96.77;101200.56;10563450;28;20047;-85
2023/09/29 06:03:04;;;;;;;22.25;11.85;;;;;;;14.98;94.49;101206.69;10552650;28;20028;-85
2023/09/29 06:08:07;;;;;;;20.77;11.82;;;;;;;15.09;92.26;101201.81;10570313;28;20054;-86
2023/09/29 06:13:10;;;;;;;19.02;11.27;;;;;;;14.93;92.72;101204.00;10552556;28;20054;-85
2023/09/29 06:18:13;;;;;;;19.08;11.45;;;;;;;15.22;91.93;101191.97;10552547;28;20517;-85
2023/09/29 06:23:15;;;;;;;18.40;10.45;;;;;;;15.79;89.39;101181.69;10569228;28;20036;-85
2023/09/29 06:28:17;;;;;;;20.73;11.40;;;;;;;16.12;86.05;101174.19;10535871;28;20040;-86
2023/09/29 06:33:20;;;;;;;21.42;10.80;;;;;;;16.92;82.68;101175.66;10571492;28;20040;-83
2023/09/29 06:38:22;;;;;;;13.15;8.88;;;;;;;17.60;78.93;101172.69;10544343;28;20040;-84
2023/09/29 06:43:24;;;;;;;18.63;11.02;;;;;;;17.36;78.96;101170.22;10569443;28;20414;-84
2023/09/29 06:48:26;;;;;;;20.55;10.57;;;;;;;18.20;76.17;101166.69;10528695;28;20411;-83
2023/09/29 06:53:31;;;;;;;22.05;11.63;;;;;;;19.10;71.29;101167.16;10562762;28;20040;-85
2023/09/29 06:58:34;;;;;;;15.63;9.57;;;;;;;18.22;74.12;101170.00;10561167;28;20036;-85
2023/09/29 07:03:36;;;;;;;15.82;11.25;;;;;;;18.17;75.71;101167.34;10562944;28;20524;-87
2023/09/29 07:08:38;;;;;;;18.60;10.55;;;;;;;19.17;72.40;101156.38;10541969;28;20028;-89
2023/09/29 07:13:40;;;;;;;24.30;10.13;;;;;;;19.75;70.16;101157.81;10557939;28;20046;-90
2023/09/29 07:18:43;;;;;;;14.40;10.20;;;;;;;20.26;67.10;101144.06;10545756;28;20039;-86
2023/09/29 07:23:45;;;;;;;16.60;9.93;;;;;;;21.45;63.43;101143.69;10559241;28;20046;-87
2023/09/29 07:28:48;;;;;;;17.75;10.00;;;;;;;20.73;65.35;101136.50;10577407;28;20038;-87
2023/09/29 07:33:50;;;;;;;19.40;10.77;;;;;;;19.48;68.93;101152.59;10586671;28;20044;-87
2023/09/29 07:38:52;;;;;;;20.80;10.55;;;;;;;18.57;72.19;101136.75;10510538;28;20047;-86
2023/09/29 07:43:54;;;;;;;14.02;9.43;;;;;;;17.90;75.20;101131.44;10550839;28;20048;-88
2023/09/29 07:48:57;;;;;;;17.75;10.68;;;;;;;18.05;76.22;101128.25;10562032;28;20037;-87
2023/09/29 07:54:01;;;;;;;16.90;9.63;;;;;;;17.99;76.66;101132.28;10528579;28;20040;-86
2023/09/29 07:59:03;;;;;;;16.45;9.10;;;;;;;18.09;76.02;101129.25;10528187;28;20048;-88
2023/09/29 08:04:05;;;;;;;18.20;9.75;;;;;;;18.62;74.84;101129.09;10578842;28;20056;-86
2023/09/29 08:09:08;;;;;;;15.20;10.05;;;;;;;20.24;68.44;101118.50;10577157;28;20040;-90
2023/09/29 08:14:11;;;;;;;14.30;9.38;;;;;;;22.29;63.27;101109.91;10549581;28;20040;-91
2023/09/29 08:19:14;;;;;;;16.95;10.82;;;;;;;22.15;60.28;101115.84;10589887;28;20048;-90
2023/09/29 08:24:16;;;;;;;15.52;9.77;;;;;;;21.60;62.95;101105.94;10580538;28;20108;-95
2023/09/29 08:29:18;;;;;;;18.00;10.82;;;;;;;20.21;66.55;101097.72;10585152;28;20038;-95
2023/09/29 08:34:21;;;;;;;19.60;10.75;;;;;;;20.08;67.20;101096.78;10557706;28;20052;-88
2023/09/29 08:39:23;;;;;;;17.02;10.27;;;;;;;20.63;64.98;101093.06;10596381;28;20043;-95
2023/09/29 08:44:29;;;;;;;19.17;10.32;;;;;;;19.45;69.63;101094.81;10587095;28;20059;-95
2023/09/29 08:49:32;;;;;;;17.52;9.98;;;;;;;20.41;66.20;101087.78;10577127;28;20044;-95
2023/09/29 08:54:35;;;;;;;19.27;9.18;;;;;;;20.30;66.43;101075.34;10551283;28;20208;-95
2023/09/29 08:59:38;;;;;;;16.05;10.02;;;;;;;19.89;68.47;101079.66;10564392;28;20040;-86
2023/09/29 09:04:40;;;;;;;15.35;8.57;;;;;;;19.65;69.28;101074.66;10544673;28;20046;-86
2023/09/29 09:09:50;;;;;;;15.25;8.13;;;;;;;19.19;71.43;101078.94;10539369;28;20036;-88
2023/09/29 09:14:52;;;;;;;17.92;9.65;;;;;;;19.80;70.04;101070.53;10579302;28;20048;-87
2023/09/29 09:19:55;;;;;;;15.65;8.70;;;;;;;19.86;69.92;101058.03;10562586;28;20046;-86
2023/09/29 09:25:02;;;;;;;21.40;10.52;;;;;;;19.99;70.93;101058.97;10561262;28;20040;-85
2023/09/29 09:30:18;;;;;;;29.60;12.52;;;;;;;20.11;69.95;101053.50;10539460;28;20410;-85
2023/09/29 09:35:28;;;;;;;22.00;10.50;;;;;;;20.18;69.51;101046.25;10571217;28;20036;-88
2023/09/29 09:40:32;;;;;;;16.98;10.57;;;;;;;19.83;71.32;101042.00;10546219;28;20544;-89
2023/09/29 09:45:44;;;;;;;19.80;9.98;;;;;;;19.92;71.83;101033.59;10516962;28;20040;-91
2023/09/29 09:50:49;;;;;;;19.45;10.43;;;;;;;20.08;71.97;101026.31;10523805;28;20053;-93
2023/09/29 09:56:10;;;;;;;18.73;10.25;;;;;;;20.31;71.46;101022.09;10518172;28;20131;-89
2023/09/29 10:01:12;;;;;;;19.45;9.15;;;;;;;20.38;71.58;101027.13;10548759;28;20112;-88
2023/09/29 10:06:15;;;;;;;15.13;9.07;;;;;;;20.51;71.98;101023.31;10565997;28;20044;-89
2023/09/29 10:11:26;;;;;;;13.95;8.77;;;;;;;21.06;70.20;101013.81;10512682;28;20047;-86
2023/09/29 10:16:29;;;;;;;19.13;10.00;;;;;;;20.91;70.40;101009.69;10586477;28;20040;-90
2023/09/29 10:21:45;;;;;;;14.45;9.80;;;;;;;20.86;70.79;101007.09;10519425;28;20547;-88
2023/09/29 10:26:51;;;;;;;17.50;10.10;;;;;;;21.06;70.41;101011.03;10571014;28;20116;-86
2023/09/29 10:31:56;;;;;;;16.30;8.38;;;;;;;21.03;70.62;101006.94;10567235;28;20044;-89
2023/09/29 10:36:59;;;;;;;14.75;8.55;;;;;;;20.96;71.07;100992.72;10520875;28;20040;-94
2023/09/29 10:42:12;;;;;;;13.38;7.85;;;;;;;21.13;70.90;100994.53;10529465;28;20048;-86
2023/09/29 10:47:16;;;;;;;15.35;8.82;;;;;;;21.07;70.53;100984.75;10579493;28;20032;-92
2023/09/29 10:52:19;;;;;;;14.05;8.25;;;;;;;21.24;69.70;100983.75;10553002;28;20044;-92
2023/09/29 10:57:22;;;;;;;8.80;5.57;;;;;;;21.22;69.01;100972.94;10508461;28;20040;-89
2023/09/29 11:02:29;;;;;;;8.52;6.35;;;;;;;21.20;68.74;100969.69;10555305;28;20044;-90
2023/09/29 11:07:49;;;;;;;14.57;7.85;;;;;;;21.15;69.53;100961.50;10536427;28;20047;-88
2023/09/29 11:12:52;;;;;;;12.88;7.13;;;;;;;21.13;69.79;100954.66;10554488;28;20044;-88
2023/09/29 11:17:54;;;;;;;13.93;8.23;;;;;;;21.08;69.10;100950.91;10529430;28;20040;-89
2023/09/29 11:23:00;;;;;;;10.55;7.45;;;;;;;21.31;69.67;100951.34;10552759;28;20051;-89
2023/09/29 11:28:02;;;;;;;10.18;8.00;;;;;;;21.46;68.96;100943.47;10551958;28;20129;-88
2023/09/29 11:33:05;;;;;;;18.55;8.40;;;;;;;21.58;68.92;100944.28;10552780;28;20054;-92
2023/09/29 11:38:07;;;;;;;11.40;7.72;;;;;;;21.70;67.55;100937.09;10519796;28;20042;-93
2023/09/29 11:43:10;;;;;;;9.15;6.20;;;;;;;21.75;67.11;100943.25;10529343;28;20054;-88
2023/09/29 11:48:12;;;;;;;17.33;7.43;;;;;;;21.54;67.84;100939.75;10564801;28;20040;-89
2023/09/29 11:53:15;;;;;;;10.95;6.78;;;;;;;21.57;68.25;100936.28;10562305;28;20040;-85
2023/09/29 11:58:17;;;;;;;13.00;7.15;;;;;;;21.61;68.70;100932.41;10578147;28;20044;-87
2023/09/29 12:03:21;;;;;;;16.17;7.03;;;;;;;21.57;67.82;100936.28;10558598;28;20100;-88
2023/09/29 12:08:23;;;;;;;10.18;6.85;;;;;;;21.36;68.47;100930.78;10581743;28;20125;-87
2023/09/29 12:13:26;;;;;;;10.90;6.78;;;;;;;21.41;66.86;100924.16;10585907;28;20036;-91
2023/09/29 12:18:33;;;;;;;11.77;7.37;;;;;;;21.43;66.90;100921.81;10572997;28;20040;-88
2023/09/29 12:23:35;;;;;;;16.58;7.50;;;;;;;21.45;66.57;100913.91;10550661;28;20058;-93
2023/09/29 12:28:37;;;;;;;9.55;6.82;;;;;;;21.50;65.67;100910.88;10538310;28;20058;-92
2023/09/29 12:33:40;;;;;;;15.27;7.40;;;;;;;21.44;66.34;100912.28;10552048;28;20054;-93
2023/09/29 12:38:43;;;;;;;13.13;6.93;;;;;;;21.26;66.15;100912.50;10550889;28;20086;-89
2023/09/29 12:43:45;;;;;;;9.93;6.55;;;;;;;21.23;65.97;100904.78;10569123;28;20088;-91
2023/09/29 12:48:48;;;;;;;11.70;6.75;;;;;;;21.21;65.22;100898.75;10519060;28;20040;-92
2023/09/29 12:53:50;;;;;;;10.18;6.13;;;;;;;21.17;64.48;100897.78;10565076;28;20082;-85
2023/09/29 12:58:55;;;;;;;11.88;6.15;;;;;;;21.13;64.53;100902.44;10580193;28;20121;-90
2023/09/29 13:03:57;;;;;;;8.43;5.30;;;;;;;21.11;63.86;100899.19;10574715;28;20024;-87
2023/09/29 13:09:03;;;;;;;8.50;5.65;;;;;;;21.08;64.79;100888.72;10568104;28;20052;-90
2023/09/29 13:14:06;;;;;;;14.93;5.80;;;;;;;21.12;64.07;100886.84;10540192;28;20422;-87
2023/09/29 13:19:08;;;;;;;7.70;4.53;;;;;;;21.07;64.29;100882.31;10497298;28;20046;-89
2023/09/29 13:24:12;;;;;;;8.68;5.35;;;;;;;21.03;64.94;100880.56;10552791;28;20055;-91
2023/09/29 13:29:15;;;;;;;9.73;5.70;;;;;;;20.94;64.95;100893.78;10563859;28;20044;-92
2023/09/29 13:34:17;;;;;;;10.23;5.47;;;;;;;20.88;65.27;100889.59;10515848;28;20414;-85
2023/09/29 13:39:19;;;;;;;12.43;5.53;;;;;;;20.84;64.73;100883.09;10583832;28;20401;-91
2023/09/29 13:44:21;;;;;;;8.95;5.95;;;;;;;20.71;65.56;100880.25;10548080;28;20035;-92
2023/09/29 13:49:24;;;;;;;9.45;5.82;;;;;;;20.65;65.55;100878.84;10564530;28;20528;-89
2023/09/29 13:54:26;;;;;;;12.63;6.13;;;;;;;20.60;65.25;100861.50;10547841;28;20036;-91
2023/09/29 13:59:28;;;;;;;9.25;5.30;;;;;;;20.45;64.76;100868.53;10583286;28;20054;-91
2023/09/29 14:04:31;;;;;;;7.53;5.40;;;;;;;20.42;64.92;100869.22;10532498;28;20037;-90
2023/09/29 14:09:35;;;;;;;9.93;5.03;;;;;;;20.32;64.87;100858.47;10547463;28;20499;-94
2023/09/29 14:14:40;;;;;;;9.57;5.43;;;;;;;20.22;65.53;100848.53;10566237;28;20040;-93
2023/09/29 14:19:43;;;;;;;8.40;5.28;;;;;;;20.16;65.71;100833.19;10572082;28;20046;-89
2023/09/29 14:24:46;;;;;;;10.77;5.55;;;;;;;20.12;65.72;100830.25;10579639;28;20050;-91
2023/09/29 14:29:48;;;;;;;9.02;4.88;;;;;;;20.07;65.87;100833.25;10571248;28;20036;-89
2023/09/29 14:34:51;;;;;;;9.07;4.90;;;;;;;20.02;66.08;100816.75;10551298;28;20048;-87
2023/09/29 14:39:57;;;;;;;9.93;5.20;;;;;;;19.95;65.72;100813.69;10549937;28;20056;-86
2023/09/29 14:45:00;;;;;;;9.10;5.00;;;;;;;19.93;66.06;100817.97;10567615;28;20039;-86
2023/09/29 14:50:03;;;;;;;7.32;5.38;;;;;;;19.88;66.14;100816.22;10584532;28;20142;-88
2023/09/29 14:55:10;;;;;;;9.70;4.88;;;;;;;19.86;66.21;100804.59;10566550;28;20050;-86
2023/09/29 15:00:13;;;;;;;12.38;5.65;;;;;;;19.82;67.39;100817.59;10570262;28;20066;-84
2023/09/29 15:05:17;;;;;;;7.35;5.38;;;;;;;19.80;67.21;100819.91;10565615;28;20552;-86
2023/09/29 15:10:20;;;;;;;7.72;5.38;;;;;;;19.73;67.39;100816.81;10566059;28;20406;-85
2023/09/29 15:15:22;;;;;;;9.27;5.75;;;;;;;19.64;67.87;100813.28;10585253;28;20036;-88
2023/09/29 15:20:25;;;;;;;8.43;5.40;;;;;;;19.55;67.80;100816.13;10566866;28;20839;-88
2023/09/29 15:25:27;;;;;;;8.65;5.28;;;;;;;19.43;68.37;100821.56;10549538;28;20042;-89
2023/09/29 15:30:30;;;;;;;7.80;4.68;;;;;;;19.37;69.25;100820.13;10548363;28;20411;-86
2023/09/29 15:35:33;;;;;;;10.25;5.07;;;;;;;19.30;69.42;100828.19;10583517;28;20040;-86
2023/09/29 15:40:35;;;;;;;10.25;5.70;;;;;;;19.19;69.95;100824.97;10566946;28;20058;-95
2023/09/29 15:45:38;;;;;;;8.45;5.20;;;;;;;19.11;69.88;100825.84;10565225;28;20036;-87
2023/09/29 15:50:41;;;;;;;9.82;4.60;;;;;;;19.01;70.30;100812.28;10565140;28;20036;-86
2023/09/29 15:55:44;;;;;;;12.15;5.45;;;;;;;18.91;70.96;100821.78;10548352;28;20043;-90
2023/09/29 16:00:46;;;;;;;10.25;5.40;;;;;;;18.81;71.28;100823.00;10563312;28;20418;-89
2023/09/29 16:05:49;;;;;;;8.70;5.00;;;;;;;18.82;71.23;100816.28;10564418;28;20036;-88
2023/09/29 16:10:53;;;;;;;9.25;5.93;;;;;;;18.79;71.56;100822.50;10565671;28;20036;-92
2023/09/29 16:15:55;;;;;;;11.80;5.40;;;;;;;18.73;71.87;100812.69;10565053;28;20043;-90
2023/09/29 16:20:58;;;;;;;9.80;5.32;;;;;;;18.74;72.19;100817.09;10534190;28;20506;-89
2023/09/29 16:26:00;;;;;;;10.07;6.65;;;;;;;18.67;72.64;100805.69;10563676;28;20046;-90
2023/09/29 16:31:04;;;;;;;14.63;6.57;;;;;;;18.65;72.53;100808.00;10553797;28;20044;-92
2023/09/29 16:36:06;;;;;;;11.25;5.72;;;;;;;18.60;72.82;100803.41;10582970;28;20047;-94
2023/09/29 16:41:08;;;;;;;8.68;5.57;;;;;;;18.56;72.89;100791.28;10580738;28;20048;-90
2023/09/29 16:46:11;;;;;;;9.73;6.93;;;;;;;18.52;73.34;100800.63;10560474;28;20403;-87
2023/09/29 16:51:14;;;;;;;8.77;5.85;;;;;;;18.47;74.16;100798.03;10559482;28;20459;-90
2023/09/29 16:56:16;;;;;;;9.88;5.57;;;;;;;18.46;74.40;100799.19;10570588;28;20061;-87
2023/09/29 17:01:18;;;;;;;8.75;6.22;;;;;;;18.47;74.50;100801.63;10550977;28;20044;-91
2023/09/29 17:06:23;;;;;;;6.68;4.50;;;;;;;18.46;74.02;100788.06;10549537;28;20062;-87
2023/09/29 17:11:27;;;;;;;9.82;6.13;;;;;;;18.38;74.91;100796.06;10564339;28;20549;-88
2023/09/29 17:16:37;;;;;;;11.88;6.03;;;;;;;18.32;75.60;100791.84;10555026;28;20046;-92
2023/09/29 17:22:04;;;;;;;12.25;5.65;;;;;;;18.34;75.83;100789.56;10526077;28;20044;-87
2023/09/29 17:28:15;;;;;;;11.85;5.50;;;;;;;18.30;75.48;100798.88;10556700;28;20538;-94
2023/09/29 17:34:52;;;;;;;12.70;6.03;;;;;;;18.25;76.38;100788.78;10567748;28;20047;-91
2023/09/29 17:40:08;;;;;;;8.18;5.68;;;;;;;18.17;76.47;100795.13;10536236;28;20048;-90
2023/09/29 17:46:04;;;;;;;15.77;6.38;;;;;;;18.11;77.38;100798.41;10347876;28;20118;-93
2023/09/29 17:51:31;;;;;;;7.72;5.40;;;;;;;18.06;77.64;100782.75;10529651;28;20036;-92
2023/09/29 17:57:13;;;;;;;8.85;5.03;;;;;;;18.05;78.24;100789.44;10569374;28;20050;-96
2023/09/29 18:02:24;;;;;;;9.98;6.30;;;;;;;18.07;78.36;100776.06;10531468;28;20040;-91
2023/09/29 18:07:26;;;;;;;8.57;5.30;;;;;;;18.05;78.78;100772.78;10531011;28;20442;-88
2023/09/29 18:12:28;;;;;;;9.68;6.53;;;;;;;18.02;79.06;100770.66;10566892;28;20037;-86
2023/09/29 18:17:31;;;;;;;11.20;6.60;;;;;;;18.01;78.98;100766.22;10540432;28;20056;-91
2023/09/29 18:22:33;;;;;;;8.32;6.35;;;;;;;17.93;79.49;100762.34;10559355;28;20052;-93
2023/09/29 18:27:36;;;;;;;12.68;6.50;;;;;;;17.88;79.58;100753.38;10525807;28;20047;-89
2023/09/29 18:32:38;;;;;;;10.70;6.60;;;;;;;17.80;80.63;100746.66;10571935;28;20079;-91
2023/09/29 18:37:41;;;;;;;10.80;5.82;;;;;;;17.76;80.84;100752.06;10581654;28;20036;-91
2023/09/29 18:42:43;;;;;;;9.45;6.05;;;;;;;17.74;80.60;100740.47;10558318;28;20060;-94
2023/09/29 18:47:51;;;;;;;8.93;5.40;;;;;;;17.73;81.03;100741.59;10533397;28;20084;-94
2023/09/29 18:52:54;;;;;;;10.60;5.28;;;;;;;17.67;81.08;100733.72;10531464;28;20062;-91
2023/09/29 18:57:56;;;;;;;9.93;5.78;;;;;;;17.68;81.51;100732.59;10504773;28;20503;-87
2023/09/29 19:02:59;;;;;;;9.55;4.72;;;;;;;17.69;81.38;100743.38;10501415;28;20055;-91
2023/09/29 19:08:01;;;;;;;10.80;5.57;;;;;;;17.73;81.53;100749.94;10539051;28;20044;-87
2023/09/29 19:13:03;;;;;;;6.40;5.05;;;;;;;17.81;81.67;100742.72;10542685;28;20036;-92
2023/09/29 19:18:05;;;;;;;9.23;5.85;;;;;;;17.88;81.50;100736.72;10544372;28;20050;-93
2023/09/29 19:23:08;;;;;;;11.70;6.20;;;;;;;17.87;80.94;100733.09;10491708;28;20044;-90
2023/09/29 19:28:11;;;;;;;10.07;6.70;;;;;;;17.86;80.99;100733.41;10485114;28;20117;-89
2023/09/29 19:33:14;;;;;;;10.57;5.93;;;;;;;17.74;81.51;100731.31;10522678;28;20040;-93
2023/09/29 19:38:16;;;;;;;12.55;7.07;;;;;;;17.69;81.66;100728.69;10536730;28;20041;-89
2023/09/29 19:43:23;;;;;;;12.32;6.80;;;;;;;17.52;82.40;100729.47;10571031;28;20044;-87
2023/09/29 19:48:25;;;;;;;11.77;6.63;;;;;;;17.33;83.51;100726.19;10563410;28;20050;-91
2023/09/29 19:53:27;;;;;;;12.18;6.53;;;;;;;17.20;84.11;100730.75;10517673;28;20046;-88
2023/09/29 19:58:29;;;;;;;13.07;6.80;;;;;;;17.21;84.59;100734.34;10561262;28;20577;-88
2023/09/29 20:03:32;;;;;;;9.88;6.75;;;;;;;17.25;84.15;100724.22;10544706;28;20503;-88
2023/09/29 20:08:35;;;;;;;8.80;6.03;;;;;;;17.08;85.31;100725.84;10564088;28;20040;-90
2023/09/29 20:13:40;;;;;;;13.32;7.13;;;;;;;17.15;84.57;100726.16;10529746;28;20042;-87
2023/09/29 20:18:44;;;;;;;11.30;6.45;;;;;;;17.04;85.10;100719.31;10558808;28;20042;-94
2023/09/29 20:23:47;;;;;;;11.70;6.63;;;;;;;17.10;84.91;100717.19;10567036;28;20129;-95
2023/09/29 20:28:49;;;;;;;10.00;6.47;;;;;;;16.98;84.68;100712.25;10590699;28;20063;-95
2023/09/29 20:33:54;;;;;;;10.38;6.68;;;;;;;17.10;84.14;100711.63;10588182;28;20036;-94
2023/09/29 20:39:01;;;;;;;12.85;6.65;;;;;;;17.02;83.78;100704.13;10553119;28;20051;-88
2023/09/29 20:44:04;;;;;;;12.95;6.70;;;;;;;17.01;83.71;100711.63;10541639;28;20511;-90
2023/09/29 20:49:06;;;;;;;9.98;5.93;;;;;;;17.01;84.00;100699.69;10558803;28;20044;-83
2023/09/29 20:54:10;;;;;;;10.85;6.20;;;;;;;17.14;83.49;100685.72;10544879;28;20050;-94
2023/09/29 20:59:12;;;;;;;9.75;6.43;;;;;;;17.14;83.63;100684.88;10580480;28;20042;-91
2023/09/29 21:04:16;;;;;;;10.38;6.93;;;;;;;17.05;84.52;100700.72;10542631;28;20552;-89
2023/09/29 21:09:19;;;;;;;10.70;7.20;;;;;;;16.91;85.94;100684.19;10562342;28;20051;-88
2023/09/29 21:14:22;;;;;;;12.00;7.07;;;;;;;16.86;86.69;100684.38;10547096;28;20039;-87
2023/09/29 21:19:24;;;;;;;10.48;7.28;;;;;;;16.84;86.86;100683.88;10585129;28;20418;-91
2023/09/29 21:24:27;;;;;;;8.90;6.47;;;;;;;16.71;88.09;100684.81;10543256;28;20031;-92
2023/09/29 21:29:35;;;;;;;9.30;6.53;;;;;;;16.66;88.80;100679.34;10560352;28;20040;-88
2023/09/29 21:34:38;;;;;;;9.18;6.80;;;;;;;16.63;89.28;100685.53;10576239;28;20050;-90
2023/09/29 21:39:41;;;;;;;9.98;6.38;;;;;;;16.74;88.98;100681.38;10561720;28;20468;-91
2023/09/29 21:44:44;;;;;;;10.27;6.60;;;;;;;16.78;88.75;100679.59;10580535;28;20410;-90
2023/09/29 21:49:47;;;;;;;12.10;7.15;;;;;;;16.73;88.69;100674.22;10503526;28;20047;-91
2023/09/29 21:54:51;;;;;;;15.30;5.97;;;;;;;16.60;89.29;100675.94;10572628;28;20040;-92
2023/09/29 21:59:53;;;;;;;9.77;6.65;;;;;;;16.58;88.81;100673.47;10564099;28;20036;-91
2023/09/29 22:04:59;;;;;;;10.68;5.75;;;;;;;16.63;88.81;100674.47;10560965;28;20048;-91
2023/09/29 22:10:02;;;;;;;9.60;6.63;;;;;;;16.67;88.29;100667.19;10570056;28;20044;-92
2023/09/29 22:15:08;;;;;;;13.90;6.38;;;;;;;16.55;88.80;100663.03;10566505;28;20046;-90
2023/09/29 22:20:11;;;;;;;7.90;5.68;;;;;;;16.57;88.47;100657.19;10569289;28;20052;-90
2023/09/29 22:25:15;;;;;;;8.25;5.97;;;;;;;16.59;88.48;100657.66;10536043;28;20032;-91
2023/09/29 22:30:17;;;;;;;10.70;6.03;;;;;;;16.58;88.18;100650.50;10513255;28;20410;-91
2023/09/29 22:35:19;;;;;;;11.15;5.85;;;;;;;16.61;87.65;100636.00;10556205;28;20070;-90
2023/09/29 22:40:23;;;;;;;10.95;5.85;;;;;;;16.52;88.51;100647.06;10544345;28;20052;-90
2023/09/29 22:45:26;;;;;;;7.55;5.07;;;;;;;16.53;88.16;100654.25;10540714;28;20040;-90
2023/09/29 22:50:28;;;;;;;9.23;5.68;;;;;;;16.57;87.86;100648.88;10561910;28;20164;-91
2023/09/29 22:55:30;;;;;;;9.40;6.55;;;;;;;16.48;88.50;100642.47;10536009;28;20059;-91
2023/09/29 23:00:33;;;;;;;9.30;5.72;;;;;;;16.43;88.78;100637.09;10535574;28;20515;-90